Detall de PIREP

Printer-friendly versionPDF version

[2012/03/24 17:39:00]
Flight IATA:CT3110
Pilot Number:037
Company ICAO:CAT
Aircraft Type:B752/E
PAX:80
Departing Airport: LEBL
Destination Airport: LEPA
Alternate Airport:LEBL
Online: VATSIM
Route:LARPA B31 TOLSO
Flight Level:F170
No Slew and time accel
No pause
Crash detect
Detect pilot in Cockpit between each 30 and 45 minutes
17:39 Zero fuel Weight: 154300 Lbs, Fuel Weight: 15972 Lbs
17:39 VATSIM:LEBL 241730Z VRB01KT CAVOK 16/09 Q1023 NOSIG
17:39 VATSIM:LEPA 241730Z 21002KT 9999 FEW030 15/10 Q1022 NOSIG
17:48 Parking Brakes off
18:00 Take-off
18:00 Take off Weight: 168916 Lbs
18:00 Wind: 143º @ 005 Knots Heading: 243º
18:00 POS N41º 17´ 52´´ E002º 04´ 52´´
18:00 Flaps:3 at 170 Knots
18:00 Gear Up: 183 Knots
18:00 Flaps:2 at 175 Knots
18:00 Flaps:1 at 185 Knots
18:01 Flaps:0 at 204 Knots
18:06 TOC
18:06 Fuel Weight: 12688 Lb
18:07 TOD
18:07 Fuel Weight: 12367 Lb
18:08 TOC
18:08 Fuel Weight: 12341 Lb
18:15 Wind:170º@002 Knots Heading: 165º Ground Speed: 406 Knots Altitude 17276 ft
18:17 TOD
18:17 Fuel Weight: 11219 Lb
18:25 Flaps:1 at 204 Knots
18:25 Flaps:2 at 190 Knots
18:26 Gear Down: 179 Knots
18:26 Flaps:3 at 178 Knots
18:28 Flaps:4 at 151 Knots
18:29 Flaps:5 at 150 Knots
18:30 Wind:222º@002 Knots Heading: 238º Ground Speed: 140 Knots Altitude 620 ft
18:30 Gear Up: 152 Knots
18:30 Flaps:4 at 155 Knots
18:31 Flaps:3 at 179 Knots
18:39 Flaps:2 at 196 Knots
18:42 Gear Down: 179 Knots
18:42 Flaps:3 at 179 Knots
18:42 Flaps:4 at 169 Knots
18:43 Flaps:5 at 151 Knots
18:43 Flaps:6 at 140 Knots
18:45 Wind:009º@002 Knots Heading: 238º Ground Speed: 136 Knots Altitude 770 ft
18:46 TouchDown:Rate -185 ft/min Speed: 124 Knots
18:46 VATSIM:LEPA 241830Z 00000KT 9999 FEW030 13/10 Q1023 NOSIG
18:46 Land
18:46 Wind:010º@001 Knots
18:46 Heading: 236º
18:46 Flight Duration: 00:46
18:46 Landing Weight: 161978 Lbs
18:46 POS N39º 32´ 51´´ E002º 44´ 43´´
18:49 Parking brakes on
18:49 Block to Block Duration: 01:01
18:49 Final Fuel: 7200 Lbls
18:49 Spent Fuel: 8772 Lbls
18:49 Flight Length: 122 NM
18:49 TOD Land Length: 57 NM

Exportar CSV

Powered by Drupal - Modified by Danger4k